Share

Bucks, AL

Chalet Ridge (KALBAYMI2) Elev 276 ft | 30.89 °N, 87.74 °W | Change Station
Active Advisory: Flood Warning

Current weather conditions updated 3 seconds ago

Light Rain
Light Rain Mist
58.3 °F
Feels Like 58.3 °F
N
2.7
Wind Variable Wind from NE
Gusts 7.2 mph
Sunrise 6:20 AM
Sunset 7:22 PM
Moon Waning Gibbous

Today is forecast to be Much Cooler than yesterday. Light rain.

Pressure 30.07 in
Visibility 5.0 miles
Clouds Mostly Cloudy 900 ft
Overcast 1400 ft
Dew Point 58 °F
Humidity 99%
Rainfall 0.00 in
Snow Depth Not available.
UV 4 out of 16
Pollen .90 out of 12
Ozone Good
Flu Activity Sporadic
METAR KMOB 181656Z 04014G21KT 5SM -RA BR BKN009 OVC014 16/15 A3008 RMK AO2 SLP183 P0000 T01610150

More Conditions Fewer Conditions

Pressure 30.07 in
Visibility 5.0 miles
Clouds Mostly Cloudy 900 ft
Overcast 1400 ft
Dew Point 58 °F
Humidity 99%
Rainfall 0.00 in
Snow Depth Not available.
UV 4 out of 16
Pollen .90 out of 12
Ozone Good
Flu Activity Sporadic
METAR KMOB 181656Z 04014G21KT 5SM -RA BR BKN009 OVC014 16/15 A3008 RMK AO2 SLP183 P0000 T01610150

More Conditions Fewer Conditions

10-Day Weather Forecast

Almanac

Astronomy

Apr. 18, 2014 Rise Set
Actual Time 6:20 AM CDT 7:22 PM CDT
Civil Twilight 5:55 AM CDT 7:47 PM CDT
Nautical Twilight 5:26 AM CDT 8:17 PM CDT
Astronomical Twilight 4:55 AM CDT 8:47 PM CDT
Moon 10:58 PM CDT 8:51 AM CDT
Length of Visible Light 13h 51m
Length of Day
13h 01m
Tomorrow will be 1m 46s longer.
Waning Gibbous, 87% of the Moon is Illuminated
Today
Waning Gibbous
Apr 22
Last Quarter
Apr 29
New
May 6
First Quarter
May 14
Full

Today's Extremes

State Highs State Lows

Community

  • What's for Lunch?
    What's for Lunch?
  • SUNRISE THROUGH THE TREES.
    SUNRISE THROUGH THE TREES.
  • Dog Wood Blossoms
    Dog Wood Blossoms
  • Morning Light
    Morning Light
  • New Day
    New Day

WunderPhotos

Upload Photos

1,702,417 photos uploaded!

Nearby

Air Quality

  Air Quality AQ Index Pollutant
Yesterday Good
OZONE
Current Good
OZONE
Friday Good
OZONE

Snow Depth

Station Depth Elevation
No new snow has been reported.

Coastal Water Temperatures

Place Temperature
Mobile State Docks, AL 62.1 °F
Coast Guard Sector Mobile, AL 63.0 °F

Earthquake Activity

City Distance Mag. Time & Date
No recent earthquake activity has been reported nearby.
Minimum magnitude displayed is 2.5.

Nearby Weather Stations

Station Location Temp. Dew Point Humidity Wind Precip. Elev Updated Type
Chalet Ridge, Bay Minette, AL 58.3 °F 58 °F 99% NE  at  2.7 mph 0.00 in / hr 276 ft 12:04 PM CDT Rapid Fire

Show More Stations Show Fewer Stations

What do you think?

We're not finished. Please let us know what you like, what you don't like, and what you are still missing.